createdAt,value
2018-12-11T00:00:38.466Z,3.87
2018-12-11T00:03:06.072Z,4.90
2018-12-11T00:05:33.549Z,4.00
2018-12-11T00:08:00.997Z,5.40
2018-12-11T00:10:28.497Z,4.33
2018-12-11T00:12:56.040Z,4.90
2018-12-11T00:15:23.560Z,3.50
2018-12-11T00:17:51.019Z,4.50
2018-12-11T00:20:18.586Z,4.27
2018-12-11T00:22:46.627Z,3.70
2018-12-11T00:25:14.163Z,5.40
2018-12-11T00:27:41.625Z,4.17
2018-12-11T00:30:09.160Z,3.80
2018-12-11T00:32:36.691Z,3.60
2018-12-11T00:35:05.181Z,3.87
2018-12-11T00:37:32.690Z,3.00
2018-12-11T00:40:00.154Z,2.50
2018-12-11T00:42:27.628Z,3.50
2018-12-11T00:44:55.072Z,3.70
2018-12-11T00:47:22.631Z,3.30
2018-12-11T00:49:50.092Z,3.08
2018-12-11T00:52:17.561Z,2.80
2018-12-11T00:54:45.024Z,3.20
2018-12-11T00:57:12.563Z,2.98
2018-12-11T00:59:40.020Z,2.90
2018-12-11T01:02:07.544Z,2.90
2018-12-11T01:04:34.984Z,2.40
2018-12-11T01:07:02.439Z,2.83
2018-12-11T01:09:29.884Z,2.50
2018-12-11T01:11:57.366Z,2.50
2018-12-11T01:14:24.813Z,2.30
2018-12-11T01:16:52.264Z,2.47
2018-12-11T01:19:19.735Z,2.30
2018-12-11T01:21:47.190Z,2.10
2018-12-11T01:24:14.639Z,2.10
2018-12-11T01:26:42.108Z,2.30
2018-12-11T01:29:09.592Z,2.05
2018-12-11T01:31:37.086Z,1.70
2018-12-11T01:34:04.627Z,2.30
2018-12-11T01:36:32.052Z,2.10
2018-12-11T01:38:59.517Z,1.90
2018-12-11T01:41:26.969Z,2.30
2018-12-11T01:43:54.429Z,2.10
2018-12-11T01:46:21.921Z,2.05
2018-12-11T01:48:49.406Z,1.80
2018-12-11T01:51:16.852Z,2.23
2018-12-11T01:53:44.307Z,2.00
2018-12-11T01:56:11.832Z,2.30
2018-12-11T01:58:39.258Z,2.00
2018-12-11T02:01:06.757Z,1.90
2018-12-11T02:03:34.264Z,1.90
2018-12-11T02:06:01.729Z,2.20
2018-12-11T02:08:29.188Z,1.67
2018-12-11T02:10:56.637Z,2.17
2018-12-11T02:13:24.078Z,1.70
2018-12-11T02:15:51.526Z,1.70
2018-12-11T02:18:18.995Z,2.03
2018-12-11T02:20:46.454Z,1.90
2018-12-11T02:23:13.908Z,2.08
2018-12-11T02:25:41.383Z,2.17
2018-12-11T02:28:08.821Z,1.70
2018-12-11T02:30:36.295Z,2.07
2018-12-11T02:33:03.880Z,1.73
2018-12-11T02:35:31.404Z,2.10
2018-12-11T02:37:58.875Z,2.20
2018-12-11T02:40:26.378Z,1.80
2018-12-11T02:42:53.803Z,1.47
2018-12-11T02:45:21.249Z,1.73
2018-12-11T02:47:48.745Z,1.70
2018-12-11T02:50:16.205Z,2.20
2018-12-11T02:52:43.685Z,1.90
2018-12-11T02:55:11.127Z,2.00
2018-12-11T02:57:38.745Z,1.87
2018-12-11T03:00:07.567Z,2.13
2018-12-11T03:02:35.125Z,1.77
2018-12-11T03:05:02.712Z,2.10
2018-12-11T03:07:30.209Z,1.50
2018-12-11T03:09:57.640Z,2.10
2018-12-11T03:12:25.070Z,2.10
2018-12-11T03:14:52.613Z,1.80
2018-12-11T03:17:20.086Z,2.43
2018-12-11T03:19:47.525Z,1.60
2018-12-11T03:22:14.997Z,1.77
2018-12-11T03:24:42.435Z,1.87
2018-12-11T03:27:09.900Z,1.87
2018-12-11T03:29:37.374Z,1.80
2018-12-11T03:32:04.862Z,1.67
2018-12-11T03:34:32.309Z,1.77
2018-12-11T03:36:59.761Z,1.80
2018-12-11T03:39:27.217Z,1.83
2018-12-11T03:41:55.063Z,2.20
2018-12-11T03:44:22.581Z,4.73
2018-12-11T03:46:50.090Z,2.40
2018-12-11T03:49:17.541Z,1.70
2018-12-11T03:51:44.994Z,1.80
2018-12-11T03:54:12.476Z,2.00
2018-12-11T03:56:39.924Z,2.40
2018-12-11T03:59:07.416Z,1.90
2018-12-11T04:01:34.889Z,2.13
2018-12-11T04:04:02.339Z,2.30
2018-12-11T04:06:29.777Z,2.30
2018-12-11T04:08:57.244Z,1.80
2018-12-11T04:11:24.690Z,1.90
2018-12-11T04:13:52.203Z,2.00
2018-12-11T04:16:19.829Z,2.70
2018-12-11T04:18:47.280Z,1.80
2018-12-11T04:21:14.752Z,2.60
2018-12-11T04:23:42.249Z,2.10
2018-12-11T04:26:09.713Z,2.20
2018-12-11T04:28:37.145Z,2.10
2018-12-11T04:31:04.620Z,1.80
2018-12-11T04:33:32.061Z,1.97
2018-12-11T04:35:59.557Z,2.30
2018-12-11T04:38:27.893Z,2.43
2018-12-11T04:40:55.411Z,1.93
2018-12-11T04:43:22.853Z,2.13
2018-12-11T04:45:50.324Z,2.17
2018-12-11T04:48:17.767Z,1.93
2018-12-11T04:50:45.206Z,2.70
2018-12-11T04:53:12.711Z,1.80
2018-12-11T04:55:40.239Z,2.20
2018-12-11T04:58:07.689Z,1.93
2018-12-11T05:00:35.165Z,2.30
2018-12-11T05:03:02.623Z,1.90
2018-12-11T05:05:30.081Z,1.97
2018-12-11T05:07:57.624Z,2.13
2018-12-11T05:10:25.150Z,2.37
2018-12-11T05:12:52.593Z,2.20
2018-12-11T05:15:20.049Z,2.00
2018-12-11T05:17:47.509Z,1.93
2018-12-11T05:20:14.994Z,2.90
2018-12-11T05:22:42.451Z,2.37
2018-12-11T05:25:09.919Z,2.17
2018-12-11T05:27:37.391Z,3.13
2018-12-11T05:30:06.738Z,2.50
2018-12-11T05:32:34.202Z,2.87
2018-12-11T05:35:01.767Z,2.33
2018-12-11T05:37:29.238Z,2.20
2018-12-11T05:39:56.664Z,1.97
2018-12-11T05:42:24.119Z,2.10
2018-12-11T05:44:51.565Z,1.70
2018-12-11T05:47:19.023Z,2.50
2018-12-11T05:49:46.555Z,2.40
2018-12-11T05:52:14.116Z,2.43
2018-12-11T05:54:41.576Z,2.03
2018-12-11T05:57:09.033Z,2.90
2018-12-11T05:59:36.517Z,2.47
2018-12-11T06:02:04.036Z,2.20
2018-12-11T06:04:31.495Z,3.17
2018-12-11T06:06:59.042Z,2.77
2018-12-11T06:09:26.516Z,2.23
2018-12-11T06:11:53.963Z,2.57
2018-12-11T06:14:21.435Z,3.07
2018-12-11T06:16:48.912Z,3.27
2018-12-11T06:19:16.850Z,2.20
2018-12-11T06:21:44.286Z,2.37
2018-12-11T06:24:11.728Z,2.93
2018-12-11T06:26:39.181Z,2.63
2018-12-11T06:29:06.645Z,2.90
2018-12-11T06:31:34.116Z,2.90
2018-12-11T06:34:01.563Z,2.83
2018-12-11T06:36:29.205Z,3.27
2018-12-11T06:38:56.659Z,2.97
2018-12-11T06:41:24.121Z,3.13
2018-12-11T06:43:51.575Z,3.40
2018-12-11T06:46:19.027Z,2.70
2018-12-11T06:48:46.468Z,2.70
2018-12-11T06:51:13.935Z,2.40
2018-12-11T06:53:41.364Z,2.37
2018-12-11T06:56:08.836Z,3.00
2018-12-11T06:58:36.263Z,3.17
2018-12-11T07:01:03.800Z,2.63
2018-12-11T07:03:31.232Z,4.10
2018-12-11T07:05:58.782Z,2.70
2018-12-11T07:08:26.213Z,2.70
2018-12-11T07:10:53.669Z,2.60
2018-12-11T07:13:21.118Z,3.33
2018-12-11T07:15:48.579Z,3.10
2018-12-11T07:18:16.030Z,3.40
2018-12-11T07:20:43.503Z,3.30
2018-12-11T07:23:11.117Z,3.77
2018-12-11T07:25:38.560Z,3.00
2018-12-11T07:28:06.043Z,3.00
2018-12-11T07:30:33.472Z,2.70
2018-12-11T07:33:00.928Z,2.40
2018-12-11T07:35:28.453Z,3.07
2018-12-11T07:37:55.899Z,2.63
2018-12-11T07:40:23.346Z,3.00
2018-12-11T07:42:50.818Z,4.40
2018-12-11T07:45:18.247Z,3.47
2018-12-11T07:47:46.296Z,3.40
2018-12-11T07:50:13.816Z,3.00
2018-12-11T07:52:41.275Z,2.97
2018-12-11T07:55:08.743Z,3.23
2018-12-11T07:57:36.177Z,4.03
2018-12-11T08:00:05.303Z,3.40
2018-12-11T08:02:32.747Z,2.70
2018-12-11T08:05:00.304Z,2.17
2018-12-11T08:07:27.739Z,2.83
2018-12-11T08:09:55.193Z,3.00
2018-12-11T08:12:22.631Z,2.80
2018-12-11T08:14:50.176Z,3.60
2018-12-11T08:17:17.617Z,3.30
2018-12-11T08:19:45.080Z,3.10
2018-12-11T08:22:12.516Z,2.95
2018-12-11T08:24:39.972Z,3.73
2018-12-11T08:27:07.439Z,3.43
2018-12-11T08:29:34.880Z,3.30
2018-12-11T08:32:02.348Z,2.60
2018-12-11T08:34:29.809Z,3.20
2018-12-11T08:36:57.252Z,3.03
2018-12-11T08:39:24.726Z,2.83
2018-12-11T08:41:52.205Z,3.00
2018-12-11T08:44:19.664Z,2.90
2018-12-11T08:46:47.133Z,3.23
2018-12-11T08:49:14.597Z,3.40
2018-12-11T08:51:42.904Z,2.80
2018-12-11T08:54:10.437Z,2.10
2018-12-11T08:56:37.882Z,2.27
2018-12-11T08:59:06.750Z,3.40
2018-12-11T09:01:34.500Z,2.57
2018-12-11T09:04:01.930Z,2.70
2018-12-11T09:06:29.363Z,3.30
2018-12-11T09:08:56.818Z,2.63
2018-12-11T09:11:24.305Z,2.80
2018-12-11T09:13:51.779Z,2.63
2018-12-11T09:16:19.342Z,3.00
2018-12-11T09:18:46.805Z,3.10
2018-12-11T09:21:14.268Z,2.43
2018-12-11T09:23:41.715Z,2.47
2018-12-11T09:26:09.164Z,3.20
2018-12-11T09:28:36.625Z,2.80
2018-12-11T09:31:04.151Z,3.33
2018-12-11T09:33:31.640Z,2.57
2018-12-11T09:35:59.084Z,2.73
2018-12-11T09:38:26.580Z,2.40
2018-12-11T09:40:54.009Z,2.30
2018-12-11T09:43:21.485Z,3.13
2018-12-11T09:45:48.942Z,2.73
2018-12-11T09:48:16.447Z,2.43
2018-12-11T09:50:43.913Z,2.77
2018-12-11T09:53:11.369Z,2.90
2018-12-11T09:55:38.871Z,3.07
2018-12-11T09:58:06.328Z,2.97
2018-12-11T10:00:33.907Z,2.10
2018-12-11T10:03:01.393Z,3.90
2018-12-11T10:05:28.896Z,2.40
2018-12-11T10:07:56.382Z,2.77
2018-12-11T10:10:23.975Z,2.30
2018-12-11T10:12:51.417Z,2.67
2018-12-11T10:15:18.903Z,4.37
2018-12-11T10:17:46.335Z,2.80
2018-12-11T10:20:14.271Z,3.87
2018-12-11T10:22:41.711Z,2.90
2018-12-11T10:25:09.183Z,3.30
2018-12-11T10:27:36.615Z,3.60
2018-12-11T10:30:07.434Z,3.10
2018-12-11T10:32:34.891Z,2.87
2018-12-11T10:35:02.427Z,3.67
2018-12-11T10:37:29.877Z,2.67
2018-12-11T10:39:57.316Z,2.37
2018-12-11T10:42:24.776Z,2.67
2018-12-11T10:44:52.245Z,3.40
2018-12-11T10:47:19.691Z,2.70
2018-12-11T10:49:47.130Z,2.70
2018-12-11T10:52:14.690Z,2.30
2018-12-11T10:54:42.126Z,2.53
2018-12-11T10:57:09.579Z,2.30
2018-12-11T10:59:37.013Z,3.03
2018-12-11T11:02:06.513Z,2.47
2018-12-11T11:04:34.060Z,2.37
2018-12-11T11:07:01.530Z,2.53
2018-12-11T11:09:29.003Z,3.00
2018-12-11T11:11:56.453Z,3.07
2018-12-11T11:14:25.175Z,2.80
2018-12-11T11:16:52.880Z,2.90
2018-12-11T11:19:20.337Z,2.40
2018-12-11T11:21:47.797Z,3.43
2018-12-11T11:24:15.275Z,2.63
2018-12-11T11:26:42.847Z,3.20
2018-12-11T11:29:10.284Z,2.60
2018-12-11T11:31:37.736Z,3.23
2018-12-11T11:34:05.235Z,2.80
2018-12-11T11:36:32.690Z,2.47
2018-12-11T11:39:00.169Z,3.90
2018-12-11T11:41:27.646Z,3.90
2018-12-11T11:43:55.096Z,3.10
2018-12-11T11:46:22.558Z,2.73
2018-12-11T11:48:50.089Z,2.33
2018-12-11T11:51:17.533Z,3.40
2018-12-11T11:53:44.997Z,3.27
2018-12-11T11:56:12.515Z,3.03
2018-12-11T11:58:39.978Z,3.47
2018-12-11T12:01:07.508Z,2.57
2018-12-11T12:03:34.967Z,2.63
2018-12-11T12:06:02.415Z,2.80
2018-12-11T12:08:29.891Z,2.33
2018-12-11T12:10:57.340Z,2.77
2018-12-11T12:13:24.805Z,3.60
2018-12-11T12:15:52.320Z,2.70
2018-12-11T12:18:19.844Z,2.43
2018-12-11T12:20:47.292Z,3.03
2018-12-11T12:23:14.755Z,3.00
2018-12-11T12:25:42.261Z,2.13
2018-12-11T12:28:09.792Z,2.90
2018-12-11T12:30:37.434Z,2.27
2018-12-11T12:33:04.880Z,2.07
2018-12-11T12:35:32.367Z,2.60
2018-12-11T12:37:59.813Z,3.10
2018-12-11T12:40:27.271Z,3.40
2018-12-11T12:42:54.728Z,2.90
2018-12-11T12:45:22.196Z,2.70
2018-12-11T12:47:49.643Z,2.13
2018-12-11T12:50:17.084Z,2.07
2018-12-11T12:52:44.555Z,3.13
2018-12-11T12:55:12.016Z,2.10
2018-12-11T12:57:39.486Z,2.80
2018-12-11T13:00:08.774Z,3.10
2018-12-11T13:02:36.218Z,2.13
2018-12-11T13:05:04.421Z,2.40
2018-12-11T13:07:31.948Z,3.93
2018-12-11T13:09:59.432Z,2.70
2018-12-11T13:12:27.164Z,2.90
2018-12-11T13:14:54.634Z,3.07
2018-12-11T13:17:22.089Z,3.80
2018-12-11T13:19:49.551Z,3.43
2018-12-11T13:22:16.994Z,3.97
2018-12-11T13:24:44.477Z,2.67
2018-12-11T13:27:11.979Z,3.17
2018-12-11T13:29:39.812Z,2.60
2018-12-11T13:32:07.274Z,4.30
2018-12-11T13:34:34.733Z,4.40
2018-12-11T13:37:02.446Z,3.83
2018-12-11T13:39:29.902Z,3.40
2018-12-11T13:41:57.484Z,3.13
2018-12-11T13:44:25.094Z,2.70
2018-12-11T13:46:52.857Z,3.47
2018-12-11T13:49:20.602Z,3.70
2018-12-11T13:51:48.072Z,4.30
2018-12-11T13:54:15.512Z,3.97
2018-12-11T13:56:42.988Z,3.87
2018-12-11T13:59:10.452Z,3.23
2018-12-11T14:01:37.961Z,3.07
2018-12-11T14:04:05.475Z,3.20
2018-12-11T14:06:32.940Z,2.70
2018-12-11T14:09:02.364Z,3.00
2018-12-11T14:11:29.833Z,3.17
2018-12-11T14:13:57.308Z,3.10
2018-12-11T14:16:24.908Z,2.73
2018-12-11T14:18:52.379Z,2.73
2018-12-11T14:21:19.983Z,2.57
2018-12-11T14:23:47.469Z,2.33
2018-12-11T14:26:14.910Z,2.37
2018-12-11T14:28:42.415Z,2.00
2018-12-11T14:31:09.997Z,3.13
2018-12-11T14:33:37.477Z,2.80
2018-12-11T14:36:04.928Z,2.73
2018-12-11T14:38:32.443Z,3.13
2018-12-11T14:40:59.991Z,3.60
2018-12-11T14:43:27.479Z,3.93
2018-12-11T14:45:55.096Z,3.17
2018-12-11T14:48:22.573Z,3.53
2018-12-11T14:50:50.067Z,3.73
2018-12-11T14:53:17.520Z,2.70
2018-12-11T14:55:44.963Z,2.60
2018-12-11T14:58:12.429Z,2.83
2018-12-11T15:00:39.985Z,3.37
2018-12-11T15:03:07.621Z,2.80
2018-12-11T15:05:35.072Z,2.70
2018-12-11T15:08:02.837Z,2.93
2018-12-11T15:10:30.513Z,4.40
2018-12-11T15:12:58.028Z,3.07
2018-12-11T15:15:25.505Z,3.43
2018-12-11T15:17:52.982Z,3.67
2018-12-11T15:20:20.458Z,2.80
2018-12-11T15:22:47.978Z,2.60
2018-12-11T15:25:15.456Z,2.47
2018-12-11T15:27:42.919Z,3.13
2018-12-11T15:30:10.412Z,2.47
2018-12-11T15:32:37.858Z,2.83
2018-12-11T15:35:05.475Z,3.00
2018-12-11T15:37:33.513Z,2.97
2018-12-11T15:40:00.971Z,2.83
2018-12-11T15:42:28.468Z,2.80
2018-12-11T15:44:55.952Z,3.20
2018-12-11T15:47:23.431Z,2.73
2018-12-11T15:49:50.859Z,3.17
2018-12-11T15:52:18.359Z,3.00
2018-12-11T15:54:45.808Z,2.60
2018-12-11T15:57:13.339Z,2.43
2018-12-11T15:59:40.791Z,3.07
2018-12-11T16:02:08.261Z,3.63
2018-12-11T16:04:35.800Z,2.80
2018-12-11T16:07:03.371Z,3.20
2018-12-11T16:09:35.715Z,3.37
2018-12-11T16:12:03.913Z,3.40
2018-12-11T16:14:31.374Z,4.27
2018-12-11T16:16:58.877Z,3.60
2018-12-11T16:19:26.325Z,3.00
2018-12-11T16:21:53.806Z,3.23
2018-12-11T16:24:21.256Z,3.77
2018-12-11T16:26:48.686Z,3.60
2018-12-11T16:29:16.165Z,3.10
2018-12-11T16:31:43.633Z,3.73
2018-12-11T16:34:11.113Z,3.80
2018-12-11T16:36:38.608Z,3.40
2018-12-11T16:39:06.465Z,4.07
2018-12-11T16:41:33.908Z,3.83
2018-12-11T16:44:01.404Z,4.20
2018-12-11T16:46:28.832Z,4.23
2018-12-11T16:48:56.308Z,3.70
2018-12-11T16:51:23.776Z,4.17
2018-12-11T16:53:51.224Z,4.33
2018-12-11T16:56:18.665Z,3.80
2018-12-11T16:58:46.144Z,4.70
2018-12-11T17:01:13.679Z,4.67
2018-12-11T17:03:41.150Z,3.70
2018-12-11T17:06:08.629Z,4.17
2018-12-11T17:08:36.085Z,3.60
2018-12-11T17:11:03.581Z,4.10
2018-12-11T17:13:31.038Z,3.80
2018-12-11T17:15:58.535Z,4.80
2018-12-11T17:18:25.977Z,4.30
2018-12-11T17:20:53.836Z,4.40
2018-12-11T17:23:21.295Z,4.23
2018-12-11T17:25:48.779Z,4.33
2018-12-11T17:28:16.389Z,4.07
2018-12-11T17:30:43.850Z,4.03
2018-12-11T17:33:11.309Z,4.17
2018-12-11T17:35:38.764Z,5.30
2018-12-11T17:38:06.224Z,3.40
2018-12-11T17:40:33.705Z,5.27
2018-12-11T17:43:01.180Z,3.80
2018-12-11T17:45:28.628Z,3.70
2018-12-11T17:47:56.128Z,5.10
2018-12-11T17:50:23.595Z,4.60
2018-12-11T17:52:51.048Z,4.30
2018-12-11T17:55:18.509Z,4.53
2018-12-11T17:57:46.716Z,4.67
2018-12-11T18:00:14.341Z,5.03
2018-12-11T18:02:42.208Z,4.53
2018-12-11T18:05:09.730Z,4.47
2018-12-11T18:07:37.207Z,4.30
2018-12-11T18:10:05.016Z,4.20
2018-12-11T18:12:32.540Z,4.40
2018-12-11T18:15:00.011Z,3.80
2018-12-11T18:17:27.492Z,4.50
2018-12-11T18:19:54.928Z,3.90
2018-12-11T18:22:22.406Z,4.60
2018-12-11T18:24:49.893Z,4.73
2018-12-11T18:27:17.402Z,5.33
2018-12-11T18:29:44.982Z,4.80
2018-12-11T18:32:12.716Z,4.20
2018-12-11T18:34:43.672Z,4.73
2018-12-11T18:37:11.112Z,4.90
2018-12-11T18:39:38.702Z,5.13
2018-12-11T18:42:06.155Z,4.90
2018-12-11T18:44:33.768Z,5.07
2018-12-11T18:47:01.239Z,4.90
2018-12-11T18:49:28.727Z,5.30
2018-12-11T18:51:56.181Z,5.83
2018-12-11T18:54:23.716Z,4.83
2018-12-11T18:56:51.207Z,4.80
2018-12-11T18:59:18.677Z,5.17
2018-12-11T19:01:46.241Z,5.47
2018-12-11T19:04:13.765Z,6.17
2018-12-11T19:06:41.371Z,5.80
2018-12-11T19:09:08.816Z,6.70
2018-12-11T19:11:36.297Z,6.77
2018-12-11T19:14:03.877Z,6.33
2018-12-11T19:16:31.390Z,6.80
2018-12-11T19:18:58.872Z,7.43
2018-12-11T19:21:26.533Z,6.90
2018-12-11T19:23:54.216Z,7.83
2018-12-11T19:26:23.482Z,7.13
2018-12-11T19:28:51.211Z,8.73
2018-12-11T19:31:18.732Z,9.20
2018-12-11T19:33:46.208Z,9.10
2018-12-11T19:36:13.709Z,10.63
2018-12-11T19:38:41.239Z,9.30
2018-12-11T19:41:08.695Z,9.90
2018-12-11T19:43:36.282Z,9.23
2018-12-11T19:46:03.759Z,8.80
2018-12-11T19:48:31.220Z,10.30
2018-12-11T19:50:58.728Z,10.03
2018-12-11T19:53:26.241Z,9.40
2018-12-11T19:55:53.735Z,9.53
2018-12-11T19:58:21.211Z,9.60
2018-12-11T20:00:48.685Z,11.73
2018-12-11T20:03:16.302Z,9.93
2018-12-11T20:05:43.789Z,9.60
2018-12-11T20:08:11.275Z,9.83
2018-12-11T20:10:38.742Z,9.77
2018-12-11T20:13:06.313Z,9.70
2018-12-11T20:15:33.761Z,9.57
2018-12-11T20:18:01.274Z,10.37
2018-12-11T20:20:28.854Z,9.13
2018-12-11T20:22:56.517Z,10.33
2018-12-11T20:25:24.096Z,10.30
2018-12-11T20:27:51.585Z,9.97
2018-12-11T20:30:19.187Z,9.30
2018-12-11T20:32:46.958Z,9.03
2018-12-11T20:35:14.435Z,9.63
2018-12-11T20:37:41.975Z,8.87
2018-12-11T20:40:09.561Z,8.83
2018-12-11T20:42:37.120Z,9.47
2018-12-11T20:45:05.111Z,8.20
2018-12-11T20:47:32.611Z,8.03
2018-12-11T20:50:00.087Z,7.80
2018-12-11T20:52:27.680Z,8.37
2018-12-11T20:54:55.160Z,8.00
2018-12-11T20:57:22.866Z,8.57
2018-12-11T20:59:50.317Z,9.40
2018-12-11T21:02:17.820Z,9.27
2018-12-11T21:04:45.310Z,8.77
2018-12-11T21:07:12.790Z,10.07
2018-12-11T21:09:40.339Z,10.60
2018-12-11T21:12:08.068Z,10.20
2018-12-11T21:14:35.555Z,9.40
2018-12-11T21:17:03.014Z,9.60
2018-12-11T21:19:30.521Z,8.40
2018-12-11T21:21:57.993Z,8.30
2018-12-11T21:24:25.757Z,9.30
2018-12-11T21:26:53.550Z,9.80
2018-12-11T21:29:21.384Z,9.60
2018-12-11T21:31:48.946Z,9.40
2018-12-11T21:34:16.524Z,9.40
2018-12-11T21:36:44.058Z,9.37
2018-12-11T21:39:11.534Z,8.90
2018-12-11T21:41:39.002Z,10.95
2018-12-11T21:44:06.476Z,9.37
2018-12-11T21:46:34.048Z,7.70
2018-12-11T21:49:01.565Z,8.03
2018-12-11T21:51:29.055Z,8.27
2018-12-11T21:53:56.525Z,8.50
2018-12-11T21:56:24.095Z,9.63
2018-12-11T21:58:51.563Z,8.87
2018-12-11T22:01:19.010Z,9.30
2018-12-11T22:03:46.513Z,8.43
2018-12-11T22:06:14.097Z,9.30
2018-12-11T22:08:41.601Z,12.03
2018-12-11T22:11:09.284Z,10.43
2018-12-11T22:13:36.727Z,8.83
2018-12-11T22:16:04.223Z,11.23
2018-12-11T22:18:31.663Z,9.37
2018-12-11T22:20:59.145Z,7.57
2018-12-11T22:23:26.638Z,10.97
2018-12-11T22:25:54.151Z,9.03
2018-12-11T22:28:21.626Z,9.07
2018-12-11T22:30:49.093Z,9.47
2018-12-11T22:33:16.550Z,9.20
2018-12-11T22:35:44.019Z,9.17
2018-12-11T22:38:11.590Z,8.17
2018-12-11T22:40:39.061Z,9.77
2018-12-11T22:43:06.545Z,8.37
2018-12-11T22:45:33.990Z,8.60
2018-12-11T22:48:01.466Z,7.97
2018-12-11T22:50:28.945Z,8.40
2018-12-11T22:52:56.418Z,8.90
2018-12-11T22:55:23.944Z,9.03
2018-12-11T22:57:51.416Z,8.70
2018-12-11T23:00:19.040Z,7.97
2018-12-11T23:02:46.495Z,8.70
2018-12-11T23:05:13.966Z,9.30
2018-12-11T23:07:41.452Z,9.10
2018-12-11T23:10:08.901Z,10.03
2018-12-11T23:12:36.373Z,9.77
2018-12-11T23:15:06.067Z,9.50
2018-12-11T23:17:33.530Z,9.20
2018-12-11T23:20:01.023Z,9.77
2018-12-11T23:22:28.513Z,9.70
2018-12-11T23:24:56.067Z,10.28
2018-12-11T23:27:23.503Z,11.18
2018-12-11T23:29:50.977Z,11.03
2018-12-11T23:32:18.433Z,10.72
2018-12-11T23:34:45.896Z,10.40
2018-12-11T23:37:13.473Z,11.10
2018-12-11T23:39:41.009Z,10.03
2018-12-11T23:42:08.475Z,10.90
2018-12-11T23:44:35.955Z,10.58
2018-12-11T23:47:04.369Z,10.72
2018-12-11T23:49:31.835Z,10.60
2018-12-11T23:51:59.275Z,10.35
2018-12-11T23:54:26.753Z,10.48
2018-12-11T23:56:54.226Z,9.80
2018-12-11T23:59:21.690Z,10.00
